createdAt,value
2019-05-16T00:01:05.179Z,54.85
2019-05-16T00:03:32.129Z,54.60
2019-05-16T00:05:59.093Z,54.98
2019-05-16T00:08:28.380Z,54.17
2019-05-16T00:10:54.921Z,54.98
2019-05-16T00:13:21.842Z,55.44
2019-05-16T00:15:48.853Z,55.25
2019-05-16T00:18:17.858Z,55.35
2019-05-16T00:20:45.015Z,55.28
2019-05-16T00:23:11.988Z,56.59
2019-05-16T00:25:39.180Z,57.20
2019-05-16T00:28:06.167Z,56.99
2019-05-16T00:30:33.115Z,55.21
2019-05-16T00:33:00.091Z,55.29
2019-05-16T00:35:28.569Z,56.03
2019-05-16T00:37:55.823Z,55.67
2019-05-16T00:40:22.790Z,55.32
2019-05-16T00:42:49.947Z,55.41
2019-05-16T00:45:18.510Z,56.03
2019-05-16T00:47:47.808Z,56.05
2019-05-16T00:50:14.529Z,56.40
2019-05-16T00:52:41.498Z,56.09
2019-05-16T00:55:08.607Z,56.86
2019-05-16T00:57:38.634Z,56.28
2019-05-16T01:00:05.607Z,55.82
2019-05-16T01:02:32.592Z,55.51
2019-05-16T01:04:59.535Z,55.11
2019-05-16T01:07:27.724Z,54.77
2019-05-16T01:09:54.828Z,55.23
2019-05-16T01:12:21.845Z,55.14
2019-05-16T01:14:48.796Z,55.09
2019-05-16T01:17:18.024Z,54.44
2019-05-16T01:19:44.641Z,54.48
2019-05-16T01:22:11.597Z,55.09
2019-05-16T01:24:41.415Z,55.29
2019-05-16T01:27:08.325Z,55.87
2019-05-16T01:29:35.344Z,55.38
2019-05-16T01:32:02.320Z,55.38
2019-05-16T01:34:29.302Z,55.41
2019-05-16T01:36:58.793Z,55.90
2019-05-16T01:39:25.121Z,55.47
2019-05-16T01:41:52.116Z,55.31
2019-05-16T01:44:19.070Z,55.69
2019-05-16T01:46:47.977Z,55.87
2019-05-16T01:49:14.864Z,55.80
2019-05-16T01:51:41.810Z,55.69
2019-05-16T01:54:08.831Z,55.76
2019-05-16T01:56:35.724Z,56.92
2019-05-16T01:59:02.716Z,56.84
2019-05-16T02:01:29.681Z,56.22
2019-05-16T02:03:58.670Z,55.90
2019-05-16T02:06:25.504Z,56.01
2019-05-16T02:08:52.477Z,54.66
2019-05-16T02:11:19.408Z,55.29
2019-05-16T02:13:48.506Z,54.98
2019-05-16T02:16:15.251Z,54.97
2019-05-16T02:18:42.331Z,55.49
2019-05-16T02:21:09.273Z,54.39
2019-05-16T02:23:38.213Z,54.35
2019-05-16T02:26:05.107Z,54.57
2019-05-16T02:28:39.717Z,54.09
2019-05-16T02:31:01.528Z,54.78
2019-05-16T02:33:31.376Z,54.99
2019-05-16T02:35:57.404Z,55.19
2019-05-16T02:38:24.364Z,55.27
2019-05-16T02:40:55.039Z,55.13
2019-05-16T02:43:25.327Z,56.03
2019-05-16T02:45:52.058Z,56.21
2019-05-16T02:48:21.291Z,56.56
2019-05-16T02:50:50.887Z,56.71
2019-05-16T02:53:16.448Z,56.39
2019-05-16T02:55:43.387Z,57.55
2019-05-16T02:58:11.486Z,57.65
2019-05-16T03:00:42.654Z,57.65
2019-05-16T03:03:07.677Z,57.93
2019-05-16T03:05:34.634Z,58.52
2019-05-16T03:08:01.918Z,58.83
2019-05-16T03:10:31.156Z,58.60
2019-05-16T03:13:00.943Z,58.96
2019-05-16T03:15:30.708Z,59.83
2019-05-16T03:18:03.765Z,59.90
2019-05-16T03:20:32.119Z,60.14
2019-05-16T03:23:02.116Z,60.59
2019-05-16T03:25:30.903Z,60.58
2019-05-16T03:27:57.088Z,61.07
2019-05-16T03:30:24.297Z,60.99
2019-05-16T03:32:54.611Z,61.35
2019-05-16T03:35:24.690Z,61.45
2019-05-16T03:37:55.660Z,61.98
2019-05-16T03:40:25.114Z,62.29
2019-05-16T03:42:52.128Z,62.39
2019-05-16T03:45:21.148Z,62.64
2019-05-16T03:47:50.998Z,62.97
2019-05-16T03:50:16.913Z,63.15
2019-05-16T03:52:44.079Z,63.58
2019-05-16T03:55:11.653Z,64.04
2019-05-16T03:57:41.438Z,64.46
2019-05-16T04:00:07.816Z,64.24
2019-05-16T04:02:34.735Z,63.73
2019-05-16T04:05:02.438Z,63.86
2019-05-16T04:07:31.683Z,64.68
2019-05-16T04:10:01.894Z,65.78
2019-05-16T04:12:27.018Z,65.40
2019-05-16T04:14:53.992Z,65.83
2019-05-16T04:17:21.280Z,66.26
2019-05-16T04:19:50.831Z,66.17
2019-05-16T04:22:17.099Z,65.63
2019-05-16T04:24:44.075Z,66.26
2019-05-16T04:27:12.072Z,66.38
2019-05-16T04:29:40.805Z,66.37
2019-05-16T04:32:10.879Z,66.92
2019-05-16T04:34:36.800Z,66.68
2019-05-16T04:37:03.772Z,66.87
2019-05-16T04:39:31.971Z,66.98
2019-05-16T04:42:01.625Z,67.17
2019-05-16T04:44:30.959Z,67.18
2019-05-16T04:46:56.995Z,67.21
2019-05-16T04:49:23.931Z,67.43
2019-05-16T04:51:51.887Z,67.32
2019-05-16T04:54:21.575Z,67.07
2019-05-16T04:56:47.876Z,67.24
2019-05-16T04:59:16.669Z,67.89
2019-05-16T05:01:43.770Z,67.78
2019-05-16T05:04:15.285Z,67.48
2019-05-16T05:06:40.615Z,67.90
2019-05-16T05:09:07.721Z,67.53
2019-05-16T05:11:34.881Z,67.86
2019-05-16T05:14:01.814Z,67.68
2019-05-16T05:16:30.599Z,67.35
2019-05-16T05:19:00.163Z,67.69
2019-05-16T05:21:26.494Z,67.50
2019-05-16T05:23:53.431Z,68.09
2019-05-16T05:26:20.490Z,67.44
2019-05-16T05:28:47.438Z,68.31
2019-05-16T05:31:14.454Z,68.21
2019-05-16T05:33:41.857Z,68.59
2019-05-16T05:36:12.034Z,67.63
2019-05-16T05:38:40.085Z,67.23
2019-05-16T05:41:06.669Z,66.36
2019-05-16T05:43:33.665Z,66.69
2019-05-16T05:46:00.992Z,67.08
2019-05-16T05:48:30.583Z,66.94
2019-05-16T05:50:56.834Z,67.27
2019-05-16T05:53:23.794Z,66.29
2019-05-16T05:55:51.580Z,67.20
2019-05-16T05:58:20.566Z,67.11
2019-05-16T06:00:47.710Z,66.79
2019-05-16T06:03:14.694Z,66.25
2019-05-16T06:05:41.623Z,66.57
2019-05-16T06:08:10.703Z,66.86
2019-05-16T06:10:37.748Z,67.13
2019-05-16T06:13:04.732Z,67.84
2019-05-16T06:15:31.777Z,67.50
2019-05-16T06:18:00.307Z,67.79
2019-05-16T06:20:27.305Z,68.05
2019-05-16T06:22:54.309Z,68.33
2019-05-16T06:25:22.648Z,67.91
2019-05-16T06:27:51.126Z,67.72
2019-05-16T06:30:20.599Z,68.05
2019-05-16T06:32:47.356Z,67.85
2019-05-16T06:35:14.412Z,67.62
2019-05-16T06:37:41.378Z,67.57
2019-05-16T06:40:10.735Z,67.53
2019-05-16T06:42:37.153Z,67.31
2019-05-16T06:45:04.874Z,67.31
2019-05-16T06:47:32.313Z,67.00
2019-05-16T06:50:00.257Z,67.04
2019-05-16T06:52:27.435Z,67.13
2019-05-16T06:54:54.450Z,67.17
2019-05-16T06:57:21.451Z,68.04
2019-05-16T06:59:50.020Z,68.36
2019-05-16T07:02:27.648Z,68.26
2019-05-16T07:04:45.914Z,66.82
2019-05-16T07:07:13.330Z,67.13
2019-05-16T07:09:41.849Z,66.17
2019-05-16T07:12:10.500Z,67.49
2019-05-16T07:14:37.555Z,67.93
2019-05-16T07:17:04.518Z,67.95
2019-05-16T07:19:31.495Z,67.95
2019-05-16T07:21:59.793Z,68.43
2019-05-16T07:24:26.893Z,67.23
2019-05-16T07:26:53.886Z,68.09
2019-05-16T07:29:22.846Z,69.08
2019-05-16T07:31:52.333Z,68.45
2019-05-16T07:34:20.666Z,67.77
2019-05-16T07:36:50.099Z,67.79
2019-05-16T07:39:16.585Z,68.21
2019-05-16T07:41:43.516Z,68.43
2019-05-16T07:44:11.096Z,68.93
2019-05-16T07:46:40.844Z,68.59
2019-05-16T07:49:06.940Z,69.58
2019-05-16T07:51:50.004Z,68.79
2019-05-16T07:54:34.550Z,68.03
2019-05-16T07:57:11.575Z,68.38
2019-05-16T07:59:29.925Z,68.31
2019-05-16T08:01:57.098Z,68.63
2019-05-16T08:04:24.093Z,68.04
2019-05-16T08:06:51.082Z,67.58
2019-05-16T08:09:18.077Z,67.33
2019-05-16T08:11:45.044Z,67.08
2019-05-16T08:14:12.020Z,67.10
2019-05-16T08:16:40.807Z,67.64
2019-05-16T08:19:10.375Z,68.11
2019-05-16T08:21:36.845Z,67.11
2019-05-16T08:24:07.150Z,65.97
2019-05-16T08:26:38.786Z,65.89
2019-05-16T08:29:02.294Z,66.84
2019-05-16T08:31:31.739Z,66.76
2019-05-16T08:34:00.983Z,67.94
2019-05-16T08:36:27.213Z,66.89
2019-05-16T08:38:54.335Z,67.03
2019-05-16T08:41:22.251Z,66.70
2019-05-16T08:43:53.421Z,66.70
2019-05-16T08:46:20.742Z,67.06
2019-05-16T08:48:47.947Z,67.07
2019-05-16T08:51:14.913Z,66.82
2019-05-16T08:53:43.615Z,67.06
2019-05-16T08:56:12.994Z,68.17
2019-05-16T08:58:40.994Z,67.97
2019-05-16T09:01:14.356Z,67.27
2019-05-16T09:03:37.022Z,66.78
2019-05-16T09:06:04.036Z,67.44
2019-05-16T09:08:30.983Z,67.43
2019-05-16T09:11:02.102Z,67.50
2019-05-16T09:13:27.960Z,67.07
2019-05-16T09:15:57.045Z,66.86
2019-05-16T09:18:28.237Z,67.62
2019-05-16T09:20:53.988Z,66.62
2019-05-16T09:23:20.911Z,66.96
2019-05-16T09:25:48.733Z,66.51
2019-05-16T09:28:16.892Z,67.04
2019-05-16T09:30:46.587Z,67.64
2019-05-16T09:33:13.002Z,68.29
2019-05-16T09:35:39.959Z,67.24
2019-05-16T09:38:07.297Z,67.64
2019-05-16T09:40:34.285Z,68.05
2019-05-16T09:43:01.230Z,66.70
2019-05-16T09:45:28.215Z,68.34
2019-05-16T09:47:57.342Z,67.68
2019-05-16T09:50:26.485Z,67.75
2019-05-16T09:52:53.261Z,67.91
2019-05-16T09:55:20.338Z,68.61
2019-05-16T09:57:47.283Z,67.18
2019-05-16T10:00:17.903Z,67.24
2019-05-16T10:02:47.521Z,67.27
2019-05-16T10:05:16.807Z,67.92
2019-05-16T10:07:43.326Z,67.70
2019-05-16T10:10:10.701Z,68.85
2019-05-16T10:12:37.678Z,68.67
2019-05-16T10:15:07.525Z,68.80
2019-05-16T10:17:36.779Z,68.52
2019-05-16T10:20:02.972Z,69.07
2019-05-16T10:22:29.931Z,68.30
2019-05-16T10:24:57.372Z,68.03
2019-05-16T10:27:26.385Z,67.15
2019-05-16T10:29:53.224Z,67.77
2019-05-16T10:32:20.208Z,67.71
2019-05-16T10:34:47.155Z,68.09
2019-05-16T10:37:14.134Z,67.68
2019-05-16T10:39:41.269Z,67.93
2019-05-16T10:42:23.171Z,67.88
2019-05-16T10:44:38.321Z,67.85
2019-05-16T10:47:07.561Z,67.88
2019-05-16T10:49:38.766Z,68.35
2019-05-16T10:52:03.701Z,68.63
2019-05-16T10:54:31.098Z,68.52
2019-05-16T10:57:00.252Z,66.95
2019-05-16T10:59:54.483Z,67.98
2019-05-16T11:01:59.665Z,67.82
2019-05-16T11:04:37.664Z,68.48
2019-05-16T11:06:57.278Z,69.31
2019-05-16T11:09:24.354Z,68.53
2019-05-16T11:11:51.351Z,68.42
2019-05-16T11:14:18.278Z,68.46
2019-05-16T11:16:47.385Z,68.95
2019-05-16T11:19:23.482Z,69.06
2019-05-16T11:21:43.071Z,68.83
2019-05-16T11:24:12.676Z,69.96
2019-05-16T11:26:38.908Z,69.21
2019-05-16T11:29:07.431Z,67.34
2019-05-16T11:31:37.141Z,68.36
2019-05-16T11:34:03.491Z,68.47
2019-05-16T11:36:30.414Z,67.25
2019-05-16T11:39:01.745Z,65.90
2019-05-16T11:41:27.482Z,66.82
2019-05-16T11:43:56.813Z,66.61
2019-05-16T11:46:23.623Z,65.69
2019-05-16T11:48:50.596Z,66.58
2019-05-16T11:51:17.603Z,66.61
2019-05-16T11:53:47.503Z,66.85
2019-05-16T11:56:13.487Z,67.24
2019-05-16T11:58:40.446Z,67.33
2019-05-16T12:01:07.771Z,68.61
2019-05-16T12:03:37.429Z,67.34
2019-05-16T12:06:05.391Z,68.79
2019-05-16T12:08:33.355Z,69.04
2019-05-16T12:11:00.291Z,69.84
2019-05-16T12:13:32.605Z,69.37
2019-05-16T12:15:56.700Z,69.95
2019-05-16T12:18:23.726Z,68.54
2019-05-16T12:20:50.652Z,69.86
2019-05-16T12:23:17.624Z,69.21
2019-05-16T12:25:44.563Z,68.18
2019-05-16T12:28:11.632Z,68.50
2019-05-16T12:30:40.364Z,68.35
2019-05-16T12:33:07.683Z,68.38
2019-05-16T12:35:36.990Z,68.39
2019-05-16T12:38:03.497Z,67.42
2019-05-16T12:40:30.433Z,68.53
2019-05-16T12:42:57.502Z,68.92
2019-05-16T12:45:27.283Z,69.24
2019-05-16T12:47:53.585Z,68.66
2019-05-16T12:50:20.613Z,70.02
2019-05-16T12:52:47.660Z,70.24
2019-05-16T12:55:16.568Z,70.31
2019-05-16T12:57:43.642Z,70.26
2019-05-16T13:00:14.885Z,69.79
2019-05-16T13:02:41.166Z,69.12
2019-05-16T13:05:08.374Z,68.55
2019-05-16T13:07:37.498Z,68.99
2019-05-16T13:10:06.594Z,68.65
2019-05-16T13:12:34.146Z,68.94
2019-05-16T13:15:01.803Z,68.67
2019-05-16T13:17:28.843Z,69.13
2019-05-16T13:19:57.539Z,68.94
2019-05-16T13:22:27.362Z,69.38
2019-05-16T13:24:57.260Z,69.08
2019-05-16T13:27:23.912Z,69.38
2019-05-16T13:29:50.876Z,69.56
2019-05-16T13:32:17.868Z,71.97
2019-05-16T13:34:44.883Z,75.05
2019-05-16T13:37:11.813Z,77.71
2019-05-16T13:39:39.124Z,76.75
2019-05-16T13:42:07.983Z,77.17
2019-05-16T13:44:37.578Z,78.54
2019-05-16T13:47:04.110Z,78.89
2019-05-16T13:49:31.254Z,80.04
2019-05-16T13:51:58.183Z,78.99
2019-05-16T13:54:26.931Z,80.94
2019-05-16T13:56:53.999Z,82.03
2019-05-16T13:59:20.965Z,82.08
2019-05-16T14:01:47.902Z,82.83
2019-05-16T14:04:17.092Z,83.08
2019-05-16T14:06:43.696Z,83.71
2019-05-16T14:09:10.632Z,84.95
2019-05-16T14:11:37.593Z,85.92
2019-05-16T14:14:05.088Z,85.69
2019-05-16T14:16:32.128Z,86.09
2019-05-16T14:18:59.141Z,86.18
2019-05-16T14:21:26.124Z,86.09
2019-05-16T14:23:53.787Z,86.56
2019-05-16T14:26:20.840Z,86.84
2019-05-16T14:28:48.828Z,87.32
2019-05-16T14:31:17.403Z,87.51
2019-05-16T14:33:44.542Z,86.87
2019-05-16T14:36:11.517Z,86.96
2019-05-16T14:38:38.447Z,86.45
2019-05-16T14:41:07.773Z,87.40
2019-05-16T14:43:36.350Z,87.99
2019-05-16T14:46:06.424Z,87.84
2019-05-16T14:48:32.009Z,88.16
2019-05-16T14:50:58.971Z,87.48
2019-05-16T14:53:28.433Z,87.86
2019-05-16T14:55:57.466Z,88.03
2019-05-16T14:58:23.628Z,87.78
2019-05-16T15:00:50.578Z,88.46
2019-05-16T15:03:18.063Z,88.40
2019-05-16T15:05:47.810Z,88.24
2019-05-16T15:08:14.158Z,87.90
2019-05-16T15:10:41.636Z,89.08
2019-05-16T15:13:08.553Z,88.37
2019-05-16T15:15:37.794Z,88.49
2019-05-16T15:18:07.750Z,89.50
2019-05-16T15:20:33.300Z,88.95
2019-05-16T15:23:00.395Z,90.05
2019-05-16T15:25:27.416Z,91.22
2019-05-16T15:27:54.335Z,91.47
2019-05-16T15:30:21.595Z,90.28
2019-05-16T15:32:48.668Z,91.44
2019-05-16T15:35:18.043Z,91.66
2019-05-16T15:37:47.923Z,91.69
2019-05-16T15:40:14.365Z,91.99
2019-05-16T15:42:41.396Z,91.65
2019-05-16T15:45:09.167Z,91.59
2019-05-16T15:47:37.579Z,90.91
2019-05-16T15:50:07.991Z,91.45
2019-05-16T15:52:38.235Z,91.90
2019-05-16T15:55:09.564Z,92.07
2019-05-16T15:57:33.837Z,91.24
2019-05-16T16:00:00.783Z,91.83
2019-05-16T16:02:29.133Z,91.51
2019-05-16T16:04:57.564Z,91.51
2019-05-16T16:07:27.131Z,90.86
2019-05-16T16:09:54.580Z,90.59
2019-05-16T16:12:22.153Z,92.91
2019-05-16T16:14:49.574Z,93.04
2019-05-16T16:17:18.623Z,92.90
2019-05-16T16:19:46.954Z,93.75
2019-05-16T16:22:14.123Z,93.72
2019-05-16T16:24:41.075Z,94.25
2019-05-16T16:27:08.045Z,94.14
2019-05-16T16:29:36.742Z,95.40
2019-05-16T16:32:06.326Z,100.00
2019-05-16T16:34:32.962Z,100.00
2019-05-16T16:36:59.926Z,100.00
2019-05-16T16:39:26.967Z,100.00
2019-05-16T16:41:56.752Z,100.00
2019-05-16T16:44:22.931Z,100.00
2019-05-16T16:46:49.889Z,100.00
2019-05-16T16:49:17.449Z,100.00
2019-05-16T16:51:44.509Z,100.00
2019-05-16T16:54:11.434Z,100.00
2019-05-16T16:56:38.382Z,100.00
2019-05-16T16:59:06.438Z,100.00
2019-05-16T17:01:33.507Z,100.00
2019-05-16T17:04:01.104Z,100.00
2019-05-16T17:06:28.041Z,100.00
2019-05-16T17:08:56.825Z,100.00
2019-05-16T17:11:26.362Z,100.00
2019-05-16T17:13:52.771Z,100.00
2019-05-16T17:16:25.739Z,100.00
2019-05-16T17:18:48.563Z,100.00
2019-05-16T17:21:17.111Z,100.00
2019-05-16T17:23:46.417Z,100.00
2019-05-16T17:26:13.064Z,100.00
2019-05-16T17:28:40.037Z,100.00
2019-05-16T17:31:07.370Z,100.00
2019-05-16T17:33:37.709Z,100.00
2019-05-16T17:36:03.308Z,100.00
2019-05-16T17:38:30.246Z,100.00
2019-05-16T17:40:57.173Z,100.00
2019-05-16T17:43:24.138Z,100.00
2019-05-16T17:45:51.083Z,100.00
2019-05-16T17:48:18.065Z,100.00
2019-05-16T17:50:46.693Z,100.00
2019-05-16T17:53:13.809Z,100.00
2019-05-16T17:55:40.738Z,100.00
2019-05-16T17:58:08.907Z,100.00
2019-05-16T18:00:36.131Z,100.00
2019-05-16T18:03:03.375Z,100.00
2019-05-16T18:05:30.390Z,100.00
2019-05-16T18:07:57.365Z,100.00
2019-05-16T18:10:26.950Z,100.00
2019-05-16T18:12:53.770Z,100.00
2019-05-16T18:15:21.308Z,100.00
2019-05-16T18:17:48.381Z,100.00
2019-05-16T18:20:15.751Z,100.00
2019-05-16T18:22:42.982Z,100.00
2019-05-16T18:25:09.979Z,100.00
2019-05-16T18:27:37.561Z,100.00
2019-05-16T18:30:05.197Z,100.00
2019-05-16T18:32:32.143Z,100.00
2019-05-16T18:34:59.121Z,100.00
2019-05-16T18:37:26.620Z,100.00
2019-05-16T18:39:53.645Z,100.00
2019-05-16T18:42:20.596Z,100.00
2019-05-16T18:44:47.596Z,100.00
2019-05-16T18:47:14.558Z,100.00
2019-05-16T18:49:41.511Z,100.00
2019-05-16T18:52:08.426Z,100.00
2019-05-16T18:54:37.654Z,100.00
2019-05-16T18:57:06.803Z,100.00
2019-05-16T18:59:33.198Z,100.00
2019-05-16T19:02:00.131Z,100.00
2019-05-16T19:04:27.166Z,100.00
2019-05-16T19:06:54.133Z,100.00
2019-05-16T19:09:21.100Z,100.00
2019-05-16T19:11:48.042Z,100.00
2019-05-16T19:14:16.971Z,100.00
2019-05-16T19:16:43.845Z,100.00
2019-05-16T19:19:10.776Z,100.00
2019-05-16T19:21:37.764Z,100.00
2019-05-16T19:24:06.848Z,100.00
2019-05-16T19:26:33.576Z,100.00
2019-05-16T19:29:00.562Z,100.00
2019-05-16T19:31:27.540Z,100.00
2019-05-16T19:33:56.560Z,100.00
2019-05-16T19:36:27.018Z,100.00
2019-05-16T19:38:53.911Z,100.00
2019-05-16T19:41:20.892Z,100.00
2019-05-16T19:43:47.911Z,100.00
2019-05-16T19:46:14.929Z,100.00
2019-05-16T19:48:41.867Z,100.00
2019-05-16T19:51:08.831Z,100.00
2019-05-16T19:53:36.501Z,100.00
2019-05-16T19:56:07.018Z,100.00
2019-05-16T19:58:33.575Z,100.00
2019-05-16T20:01:02.593Z,100.00
2019-05-16T20:03:29.518Z,100.00
2019-05-16T20:05:57.000Z,100.00
2019-05-16T20:08:24.014Z,100.00
2019-05-16T20:10:50.996Z,100.00
2019-05-16T20:13:20.490Z,100.00
2019-05-16T20:15:47.466Z,100.00
2019-05-16T20:18:18.230Z,100.00
2019-05-16T20:20:43.342Z,100.00
2019-05-16T20:23:10.272Z,100.00
2019-05-16T20:25:37.228Z,100.00
2019-05-16T20:28:08.765Z,100.00
2019-05-16T20:30:33.108Z,100.00
2019-05-16T20:33:00.085Z,100.00
2019-05-16T20:35:27.038Z,100.00
2019-05-16T20:37:54.145Z,100.00
2019-05-16T20:40:21.090Z,100.00
2019-05-16T20:42:48.267Z,100.00
2019-05-16T20:45:16.900Z,100.00
2019-05-16T20:47:43.991Z,100.00
2019-05-16T20:50:11.732Z,100.00
2019-05-16T20:52:38.785Z,100.00
2019-05-16T20:55:07.173Z,100.00
2019-05-16T20:57:34.484Z,100.00
2019-05-16T21:00:01.400Z,100.00
2019-05-16T21:02:28.364Z,100.00
2019-05-16T21:04:57.092Z,100.00
2019-05-16T21:07:26.362Z,100.00
2019-05-16T21:09:52.938Z,100.00
2019-05-16T21:12:22.193Z,100.00
2019-05-16T21:14:49.134Z,100.00
2019-05-16T21:17:17.418Z,100.00
2019-05-16T21:19:44.501Z,100.00
2019-05-16T21:22:11.444Z,100.00
2019-05-16T21:24:38.359Z,100.00
2019-05-16T21:27:05.306Z,100.00
2019-05-16T21:29:32.255Z,100.00
2019-05-16T21:31:59.237Z,100.00
2019-05-16T21:34:27.206Z,100.00
2019-05-16T21:36:54.410Z,100.00
2019-05-16T21:39:21.465Z,100.00
2019-05-16T21:41:48.507Z,100.00
2019-05-16T21:44:17.057Z,100.00
2019-05-16T21:46:44.224Z,100.00
2019-05-16T21:49:11.164Z,100.00
2019-05-16T21:51:38.094Z,100.00
2019-05-16T21:54:07.010Z,100.00
2019-05-16T21:56:33.883Z,100.00
2019-05-16T21:59:01.080Z,100.00
2019-05-16T22:01:28.097Z,100.00
2019-05-16T22:03:56.715Z,100.00
2019-05-16T22:06:23.775Z,100.00
2019-05-16T22:08:50.727Z,100.00
2019-05-16T22:11:17.661Z,100.00
2019-05-16T22:13:46.447Z,100.00
2019-05-16T22:16:13.560Z,100.00
2019-05-16T22:18:40.523Z,100.00
2019-05-16T22:21:07.869Z,100.00
2019-05-16T22:23:37.233Z,100.00
2019-05-16T22:26:03.654Z,100.00
2019-05-16T22:28:30.618Z,100.00
2019-05-16T22:30:58.539Z,100.00
2019-05-16T22:33:26.761Z,100.00
2019-05-16T22:35:53.758Z,100.00
2019-05-16T22:38:20.795Z,100.00
2019-05-16T22:40:47.733Z,100.00
2019-05-16T22:43:17.215Z,100.00
2019-05-16T22:45:43.571Z,100.00
2019-05-16T22:48:10.520Z,100.00
2019-05-16T22:50:37.448Z,100.00
2019-05-16T22:53:06.439Z,100.00
2019-05-16T22:55:33.308Z,100.00
2019-05-16T22:58:00.259Z,100.00
2019-05-16T23:00:29.466Z,100.00
2019-05-16T23:02:56.729Z,100.00
2019-05-16T23:05:23.645Z,100.00
2019-05-16T23:08:02.099Z,100.00
2019-05-16T23:10:19.440Z,100.00
2019-05-16T23:12:46.382Z,100.00
2019-05-16T23:15:13.936Z,100.00
2019-05-16T23:17:40.853Z,100.00
2019-05-16T23:20:08.106Z,100.00
2019-05-16T23:22:36.709Z,100.00
2019-05-16T23:25:06.372Z,100.00
2019-05-16T23:27:32.720Z,100.00
2019-05-16T23:29:59.665Z,100.00
2019-05-16T23:32:27.113Z,100.00
2019-05-16T23:34:54.147Z,100.00
2019-05-16T23:37:21.077Z,100.00
2019-05-16T23:39:48.030Z,100.00
2019-05-16T23:42:14.973Z,100.00
